Time;durP1;ratioP1;P1;durP2;ratioP2;P2;SDS_P1;SDS_P2;PMS_P1;PMS_P2;Temp;Humidity;BMP_temperature;BMP_pressure;BME280_temperature;BME280_humidity;BME280_pressure;Samples;Min_cycle;Max_cycle;Signal;HPM_P1;HPM_P2
2021/12/26 00:00:54;;;;;;;14.52;8.80;;;2.90;99.90;;;;;;4935345;29;20163;-77
2021/12/26 00:03:25;;;;;;;12.30;8.45;;;2.80;99.90;;;;;;4935129;29;20175;-77
2021/12/26 00:05:51;;;;;;;18.30;7.97;;;2.80;99.90;;;;;;4935348;29;20167;-77
2021/12/26 00:08:17;;;;;;;9.48;6.55;;;2.70;99.90;;;;;;4935509;29;20231;-78
2021/12/26 00:10:43;;;;;;;13.30;8.48;;;2.80;99.90;;;;;;4935172;29;20210;-78
2021/12/26 00:13:08;;;;;;;12.43;7.25;;;2.70;99.90;;;;;;4949662;28;20668;-77
2021/12/26 00:15:34;;;;;;;12.20;8.23;;;2.60;99.90;;;;;;4935209;29;20178;-78
2021/12/26 00:17:59;;;;;;;14.32;7.82;;;2.70;99.90;;;;;;4935091;29;20195;-78
2021/12/26 00:20:26;;;;;;;15.90;8.70;;;2.80;99.90;;;;;;4935181;29;20543;-78
2021/12/26 00:22:52;;;;;;;11.35;7.47;;;2.70;99.90;;;;;;4934801;29;20175;-77
2021/12/26 00:25:18;;;;;;;10.07;7.90;;;2.60;99.90;;;;;;4934790;29;20167;-78
2021/12/26 00:27:44;;;;;;;15.57;9.18;;;2.60;99.90;;;;;;4935618;29;20179;-78
2021/12/26 00:30:15;;;;;;;12.38;7.85;;;2.50;99.90;;;;;;4938596;29;20178;-78
2021/12/26 00:32:41;;;;;;;17.00;8.00;;;2.60;99.90;;;;;;4938551;29;20247;-80
2021/12/26 00:35:09;;;;;;;17.92;9.02;;;2.70;99.90;;;;;;4938587;29;20649;-78
2021/12/26 00:37:35;;;;;;;12.18;7.78;;;2.80;99.90;;;;;;4953080;28;20644;-78
2021/12/26 00:40:01;;;;;;;11.55;7.20;;;2.80;99.90;;;;;;4938373;29;20174;-77
2021/12/26 00:42:27;;;;;;;16.35;7.63;;;2.60;99.90;;;;;;4938799;29;20175;-78
2021/12/26 00:44:53;;;;;;;13.63;8.55;;;2.80;99.90;;;;;;4938455;29;20629;-78
2021/12/26 00:47:18;;;;;;;15.85;8.45;;;2.90;99.90;;;;;;4938776;29;20183;-77
2021/12/26 00:49:44;;;;;;;13.65;8.38;;;2.80;99.90;;;;;;4938364;29;20270;-78
2021/12/26 00:52:10;;;;;;;12.63;8.00;;;2.70;99.90;;;;;;4938177;29;20171;-78
2021/12/26 00:54:36;;;;;;;15.75;9.07;;;2.60;99.90;;;;;;4938168;29;20182;-78
2021/12/26 00:57:03;;;;;;;16.35;8.30;;;2.80;99.90;;;;;;4938167;29;20575;-77
2021/12/26 00:59:28;;;;;;;12.63;8.30;;;2.90;99.90;;;;;;4938362;29;20195;-78
2021/12/26 01:01:55;;;;;;;17.80;9.95;;;2.80;99.90;;;;;;4952643;28;20163;-79
2021/12/26 01:04:22;;;;;;;13.38;8.27;;;2.70;99.90;;;;;;4937763;29;20323;-77
2021/12/26 01:06:48;;;;;;;17.30;8.88;;;2.80;99.90;;;;;;4937870;29;20548;-77
2021/12/26 01:09:20;;;;;;;13.27;9.43;;;2.80;99.90;;;;;;4937485;29;20202;-79
2021/12/26 01:11:51;;;;;;;20.70;8.35;;;2.90;99.90;;;;;;4937835;29;20171;-79
2021/12/26 01:14:25;;;;;;;14.95;9.02;;;2.80;99.90;;;;;;4938072;29;20183;-77
2021/12/26 01:17:01;;;;;;;12.93;8.07;;;2.90;99.90;;;;;;4952622;28;20175;-78
2021/12/26 01:19:32;;;;;;;14.55;8.00;;;2.80;99.90;;;;;;4952871;28;20199;-78
2021/12/26 01:21:58;;;;;;;17.35;9.07;;;2.80;99.90;;;;;;4937941;29;20174;-77
2021/12/26 01:24:23;;;;;;;20.27;9.88;;;2.90;99.90;;;;;;4937777;29;20175;-77
2021/12/26 01:26:49;;;;;;;19.58;9.32;;;2.70;99.90;;;;;;4937727;29;20249;-77
2021/12/26 01:29:15;;;;;;;20.52;9.68;;;2.70;99.90;;;;;;4937785;29;20238;-78
2021/12/26 01:31:40;;;;;;;21.55;10.45;;;2.70;99.90;;;;;;4952007;28;20186;-77
2021/12/26 01:34:07;;;;;;;17.50;9.05;;;2.60;99.90;;;;;;4937084;29;20214;-77
2021/12/26 01:36:33;;;;;;;22.30;8.20;;;2.80;99.90;;;;;;4937357;29;20175;-77
2021/12/26 01:39:01;;;;;;;14.93;8.63;;;3.00;99.90;;;;;;4937337;29;20191;-77
2021/12/26 01:41:27;;;;;;;17.40;9.05;;;3.20;99.90;;;;;;4938205;29;20171;-77
2021/12/26 01:43:57;;;;;;;18.73;9.52;;;3.10;99.90;;;;;;4938079;29;20288;-77
2021/12/26 01:46:26;;;;;;;15.38;8.38;;;3.10;99.90;;;;;;4937693;29;20175;-78
2021/12/26 01:49:15;;;;;;;13.25;7.78;;;3.10;99.90;;;;;;4938052;29;20191;-77
2021/12/26 01:51:42;;;;;;;24.27;9.43;;;3.00;99.90;;;;;;4938147;29;20628;-78
2021/12/26 01:54:10;;;;;;;13.40;8.73;;;2.90;99.90;;;;;;4937427;29;20207;-78
2021/12/26 01:56:39;;;;;;;19.70;9.80;;;2.90;99.90;;;;;;4937188;29;20163;-77
2021/12/26 01:59:08;;;;;;;21.05;12.05;;;2.80;99.90;;;;;;4936905;29;20202;-78
2021/12/26 02:01:34;;;;;;;16.15;9.80;;;2.80;99.90;;;;;;4937019;29;20175;-78
2021/12/26 02:04:02;;;;;;;30.60;10.77;;;2.80;99.90;;;;;;4937026;29;20685;-77
2021/12/26 02:06:27;;;;;;;16.85;10.02;;;2.70;99.90;;;;;;4936727;29;20183;-78
2021/12/26 02:08:53;;;;;;;19.25;9.07;;;2.70;99.90;;;;;;4936358;29;20187;-80
2021/12/26 02:11:19;;;;;;;18.45;9.57;;;2.90;99.90;;;;;;4936931;29;20164;-77
2021/12/26 02:13:45;;;;;;;18.27;10.82;;;3.00;99.90;;;;;;4936751;29;20233;-80
2021/12/26 02:16:12;;;;;;;24.08;9.63;;;3.20;99.90;;;;;;4936680;29;20167;-78
2021/12/26 02:18:38;;;;;;;18.50;11.25;;;3.10;99.90;;;;;;4936331;29;20267;-80
2021/12/26 02:21:38;;;;;;;15.05;9.27;;;3.10;99.90;;;;;;4936664;29;20182;-78
2021/12/26 02:29:39;;;;;;;30.50;10.43;;;3.10;99.90;;;;;;4936793;29;20238;-78
2021/12/26 02:32:05;;;;;;;19.75;9.40;;;3.10;99.90;;;;;;4951162;28;20179;-78
2021/12/26 02:34:31;;;;;;;19.35;10.48;;;3.10;99.90;;;;;;4951214;28;20167;-78
2021/12/26 02:36:57;;;;;;;18.48;11.90;;;3.10;99.90;;;;;;4936717;29;20625;-77
2021/12/26 02:39:22;;;;;;;29.75;15.30;;;3.20;99.90;;;;;;4936235;29;20193;-78
2021/12/26 02:41:48;;;;;;;33.25;16.92;;;3.30;99.90;;;;;;4936212;29;20258;-78
2021/12/26 02:44:15;;;;;;;27.88;17.05;;;3.30;99.90;;;;;;4936265;29;20177;-78
2021/12/26 02:46:40;;;;;;;31.75;16.80;;;3.40;99.90;;;;;;4936170;29;20176;-78
2021/12/26 02:49:07;;;;;;;32.35;13.73;;;3.40;99.90;;;;;;4935968;29;20195;-80
2021/12/26 02:51:33;;;;;;;32.30;12.98;;;3.20;99.90;;;;;;4936138;29;20171;-77
2021/12/26 02:53:58;;;;;;;26.42;12.48;;;3.20;99.90;;;;;;4936150;29;20691;-77
2021/12/26 02:56:25;;;;;;;15.25;11.30;;;3.10;99.90;;;;;;4936027;29;20221;-80
2021/12/26 02:58:50;;;;;;;22.48;12.35;;;3.10;99.90;;;;;;4936157;29;20218;-81
2021/12/26 03:01:19;;;;;;;22.63;10.73;;;3.20;99.90;;;;;;4936033;29;20617;-78
2021/12/26 03:03:45;;;;;;;24.85;11.70;;;3.30;99.90;;;;;;4935838;29;20222;-79
2021/12/26 03:06:19;;;;;;;24.27;12.48;;;3.30;99.90;;;;;;4935940;29;20199;-79
2021/12/26 03:08:47;;;;;;;33.95;16.30;;;3.40;99.90;;;;;;4935684;29;20194;-79
2021/12/26 03:11:12;;;;;;;31.83;18.42;;;3.60;99.90;;;;;;4936637;29;20180;-77
2021/12/26 03:13:38;;;;;;;40.80;20.15;;;3.50;99.90;;;;;;4935892;29;20211;-77
2021/12/26 03:16:04;;;;;;;26.40;15.93;;;3.40;99.90;;;;;;4935847;29;20656;-78
2021/12/26 03:18:29;;;;;;;33.40;15.73;;;3.30;99.90;;;;;;4935895;29;20223;-78
2021/12/26 03:20:55;;;;;;;32.35;14.32;;;3.30;99.90;;;;;;4935950;29;20631;-78
2021/12/26 03:23:24;;;;;;;29.70;15.50;;;3.30;99.90;;;;;;4935131;29;20183;-77
2021/12/26 03:25:53;;;;;;;27.90;15.80;;;3.30;99.90;;;;;;4949873;28;20175;-77
2021/12/26 03:28:19;;;;;;;33.58;15.38;;;3.50;99.90;;;;;;4935185;29;20191;-78
2021/12/26 03:30:44;;;;;;;24.48;13.82;;;3.50;99.90;;;;;;4950258;28;20171;-78
2021/12/26 03:33:12;;;;;;;32.47;15.93;;;3.60;99.90;;;;;;4935876;28;20569;-77
2021/12/26 03:35:39;;;;;;;22.48;13.00;;;3.60;99.90;;;;;;4935348;29;20178;-77
2021/12/26 03:38:07;;;;;;;19.45;12.25;;;3.70;99.90;;;;;;4935040;29;20205;-78
2021/12/26 03:40:33;;;;;;;24.63;12.48;;;3.60;99.90;;;;;;4935101;29;20265;-77
2021/12/26 03:42:58;;;;;;;18.70;11.85;;;3.60;99.90;;;;;;4935251;29;20171;-77
2021/12/26 03:45:24;;;;;;;21.70;12.85;;;3.50;99.90;;;;;;4935347;29;20167;-77
2021/12/26 03:47:50;;;;;;;19.50;12.23;;;3.50;99.90;;;;;;4935087;29;20290;-78
2021/12/26 03:50:19;;;;;;;18.90;11.75;;;3.40;99.90;;;;;;4935199;29;20699;-77
2021/12/26 03:52:45;;;;;;;20.23;12.20;;;3.50;99.90;;;;;;4934994;29;20585;-77
2021/12/26 03:55:11;;;;;;;18.02;10.68;;;3.70;99.90;;;;;;4935285;29;20195;-77
2021/12/26 03:57:37;;;;;;;21.17;12.43;;;3.90;99.90;;;;;;4935366;29;20171;-77
2021/12/26 04:00:05;;;;;;;26.77;13.55;;;3.80;99.90;;;;;;4935285;29;20254;-77
2021/12/26 04:02:31;;;;;;;25.23;11.65;;;3.70;99.90;;;;;;4935780;28;20254;-78
2021/12/26 04:04:56;;;;;;;25.25;14.18;;;3.60;99.90;;;;;;4939305;29;20616;-78
2021/12/26 04:07:22;;;;;;;26.05;12.00;;;3.60;99.90;;;;;;4939359;29;20195;-77
2021/12/26 04:09:48;;;;;;;21.80;11.35;;;3.70;99.90;;;;;;4939042;29;20206;-77
2021/12/26 04:12:13;;;;;;;16.08;10.60;;;3.80;99.90;;;;;;4939161;29;20199;-78
2021/12/26 04:14:39;;;;;;;18.98;12.45;;;3.80;99.90;;;;;;4939411;29;20202;-77
2021/12/26 04:17:05;;;;;;;18.60;12.35;;;3.90;99.90;;;;;;4940854;29;20175;-78
2021/12/26 04:19:30;;;;;;;22.35;13.07;;;4.00;99.90;;;;;;4943016;29;20218;-77
2021/12/26 04:21:56;;;;;;;23.90;14.98;;;3.80;99.90;;;;;;4941331;29;20182;-77
2021/12/26 04:24:22;;;;;;;30.90;14.82;;;3.70;99.90;;;;;;4941741;29;20187;-80
2021/12/26 04:26:48;;;;;;;23.40;14.18;;;3.50;99.90;;;;;;4941999;29;20258;-77
2021/12/26 04:29:13;;;;;;;22.52;13.60;;;3.50;99.90;;;;;;4941940;29;20195;-77
2021/12/26 04:31:39;;;;;;;23.67;13.70;;;3.60;99.90;;;;;;4956718;28;20239;-77
2021/12/26 04:34:05;;;;;;;22.60;13.20;;;3.50;99.90;;;;;;4945239;29;20215;-78
2021/12/26 04:36:31;;;;;;;18.60;11.27;;;3.70;99.90;;;;;;4943914;29;20170;-80
2021/12/26 04:38:56;;;;;;;23.27;12.45;;;3.50;99.90;;;;;;4945184;29;20223;-77
2021/12/26 04:41:22;;;;;;;18.55;11.90;;;3.50;99.90;;;;;;4942855;29;20259;-78
2021/12/26 04:43:47;;;;;;;22.45;13.23;;;3.40;99.90;;;;;;4941631;29;20179;-78
2021/12/26 04:46:14;;;;;;;23.70;13.75;;;3.60;99.90;;;;;;4941632;29;20168;-76
2021/12/26 04:48:42;;;;;;;20.80;13.70;;;3.70;99.90;;;;;;4942528;29;20195;-77
2021/12/26 04:51:10;;;;;;;26.25;13.43;;;3.70;99.90;;;;;;4940679;29;20175;-78
2021/12/26 04:53:38;;;;;;;19.20;12.98;;;3.70;99.90;;;;;;4938192;29;20206;-76
2021/12/26 04:56:04;;;;;;;21.15;14.00;;;3.70;99.90;;;;;;4938315;29;20258;-77
2021/12/26 04:58:31;;;;;;;19.90;12.95;;;3.80;99.90;;;;;;4938220;29;20238;-78
2021/12/26 05:00:56;;;;;;;24.10;14.38;;;3.80;99.90;;;;;;4953315;28;20242;-80
2021/12/26 05:03:22;;;;;;;21.00;13.93;;;3.80;99.90;;;;;;4937947;29;20249;-77
2021/12/26 05:05:48;;;;;;;23.00;14.05;;;3.70;99.90;;;;;;4938433;29;20174;-77
2021/12/26 05:08:14;;;;;;;25.65;14.50;;;3.90;99.90;;;;;;4938463;29;20191;-77
2021/12/26 05:10:41;;;;;;;28.95;14.77;;;4.10;99.90;;;;;;4953284;28;20175;-78
2021/12/26 05:13:07;;;;;;;20.52;14.65;;;4.20;99.90;;;;;;4952852;28;20226;-80
2021/12/26 05:15:33;;;;;;;16.35;12.65;;;4.10;99.90;;;;;;4936787;29;20171;-77
2021/12/26 05:17:59;;;;;;;24.77;13.30;;;4.00;99.90;;;;;;4920866;29;20206;-77
2021/12/26 05:20:27;;;;;;;17.38;12.57;;;3.90;99.90;;;;;;4938211;29;20203;-78
2021/12/26 05:22:54;;;;;;;16.15;13.70;;;3.90;99.90;;;;;;4952554;28;20731;-78
2021/12/26 05:25:21;;;;;;;17.13;11.43;;;3.90;99.90;;;;;;4952526;28;20752;-78
2021/12/26 05:27:47;;;;;;;17.55;12.93;;;3.80;99.90;;;;;;4937337;29;20250;-76
2021/12/26 05:30:16;;;;;;;14.70;11.65;;;3.60;99.90;;;;;;4937674;29;20259;-77
2021/12/26 05:32:43;;;;;;;20.02;11.57;;;3.70;99.90;;;;;;4937811;29;20622;-77
2021/12/26 05:35:10;;;;;;;14.73;10.98;;;3.60;99.90;;;;;;4938032;29;20207;-77
2021/12/26 05:37:37;;;;;;;10.75;9.50;;;3.90;99.90;;;;;;4937915;29;20169;-77
2021/12/26 05:40:04;;;;;;;12.88;10.07;;;3.90;99.90;;;;;;4938190;29;20183;-78
2021/12/26 05:42:31;;;;;;;22.02;11.25;;;3.80;99.90;;;;;;4937940;29;20691;-79
2021/12/26 05:44:57;;;;;;;13.75;10.75;;;3.80;99.90;;;;;;4938050;29;20184;-78
2021/12/26 05:47:23;;;;;;;11.60;10.30;;;3.90;99.90;;;;;;4938186;29;20567;-78
2021/12/26 05:49:49;;;;;;;16.35;10.85;;;4.00;99.90;;;;;;4938102;29;20707;-81
2021/12/26 05:52:15;;;;;;;14.25;10.32;;;3.70;99.90;;;;;;4937813;29;20565;-77
2021/12/26 05:54:41;;;;;;;11.27;9.63;;;3.90;99.90;;;;;;4937474;29;20242;-79
2021/12/26 05:57:07;;;;;;;16.23;10.32;;;4.10;99.90;;;;;;4937600;29;20163;-78
2021/12/26 05:59:32;;;;;;;12.05;9.82;;;4.10;99.90;;;;;;4937295;29;20198;-78
2021/12/26 06:01:58;;;;;;;11.98;9.10;;;4.20;99.90;;;;;;4937071;29;20176;-78
2021/12/26 06:04:24;;;;;;;14.75;9.98;;;4.00;99.90;;;;;;4951986;29;20182;-78
2021/12/26 06:06:50;;;;;;;16.08;11.40;;;4.00;99.90;;;;;;4937377;29;20206;-77
2021/12/26 06:09:16;;;;;;;13.75;10.32;;;4.10;99.90;;;;;;4935776;29;20195;-78
2021/12/26 06:11:42;;;;;;;10.60;9.50;;;4.10;99.90;;;;;;4937081;29;20548;-78
2021/12/26 06:14:08;;;;;;;13.32;10.90;;;4.10;99.90;;;;;;4937322;29;20218;-78
2021/12/26 06:16:33;;;;;;;13.50;10.43;;;4.10;99.90;;;;;;4937124;29;20171;-77
2021/12/26 06:18:59;;;;;;;16.02;10.98;;;4.20;99.90;;;;;;4951849;28;20195;-78
2021/12/26 06:21:24;;;;;;;12.93;10.55;;;4.20;99.90;;;;;;4951826;28;20171;-78
2021/12/26 06:23:50;;;;;;;13.23;11.13;;;4.10;99.90;;;;;;4951953;28;20202;-79
2021/12/26 06:26:20;;;;;;;17.48;11.25;;;4.10;99.90;;;;;;4936508;29;20631;-78
2021/12/26 06:28:46;;;;;;;16.20;11.88;;;4.10;99.90;;;;;;4936658;29;20191;-79
2021/12/26 06:31:12;;;;;;;13.88;11.07;;;4.20;99.90;;;;;;4951470;28;20282;-78
2021/12/26 06:33:39;;;;;;;15.40;11.68;;;4.10;99.90;;;;;;4936747;29;20274;-79
2021/12/26 06:36:05;;;;;;;15.50;11.68;;;4.10;99.90;;;;;;4936616;29;20164;-78
2021/12/26 06:38:31;;;;;;;12.52;10.90;;;4.20;99.90;;;;;;4936278;29;20198;-78
2021/12/26 06:40:57;;;;;;;13.98;11.18;;;4.40;99.90;;;;;;4936839;28;20186;-78
2021/12/26 06:43:23;;;;;;;15.23;11.35;;;4.40;99.90;;;;;;4951002;28;20210;-79
2021/12/26 06:45:49;;;;;;;14.57;11.70;;;4.30;99.90;;;;;;4951050;28;20730;-79
2021/12/26 06:48:14;;;;;;;12.27;11.05;;;4.20;99.90;;;;;;4936558;29;20194;-78
2021/12/26 06:50:40;;;;;;;15.88;11.25;;;4.20;99.90;;;;;;4936925;29;20175;-79
2021/12/26 06:53:06;;;;;;;20.00;11.55;;;4.30;99.90;;;;;;4936192;29;20699;-80
2021/12/26 06:55:32;;;;;;;15.20;11.45;;;4.20;99.90;;;;;;4936279;29;20691;-81
2021/12/26 06:57:57;;;;;;;15.63;12.75;;;4.20;99.90;;;;;;4936143;29;20223;-81
2021/12/26 07:00:23;;;;;;;16.33;12.10;;;4.30;99.90;;;;;;4936276;29;20172;-79
2021/12/26 07:02:49;;;;;;;17.83;13.05;;;4.30;99.90;;;;;;4935926;29;20175;-78
2021/12/26 07:05:14;;;;;;;15.65;12.07;;;4.40;99.90;;;;;;4936062;29;20164;-79
2021/12/26 07:07:41;;;;;;;16.67;12.63;;;4.20;99.90;;;;;;4936155;29;20171;-78
2021/12/26 07:10:07;;;;;;;19.83;12.35;;;4.20;99.90;;;;;;4935951;29;20219;-78
2021/12/26 07:12:33;;;;;;;15.90;12.60;;;4.30;99.90;;;;;;4936322;29;20675;-79
2021/12/26 07:14:58;;;;;;;22.15;12.65;;;4.40;99.90;;;;;;4935953;29;20195;-78
2021/12/26 07:17:24;;;;;;;16.77;11.73;;;4.20;99.90;;;;;;4935601;29;20171;-78
2021/12/26 07:19:51;;;;;;;22.15;13.40;;;4.20;99.90;;;;;;4936055;29;20217;-80
2021/12/26 07:22:16;;;;;;;21.40;13.70;;;4.30;99.90;;;;;;4935952;29;20265;-77
2021/12/26 07:24:43;;;;;;;18.25;12.77;;;4.30;99.90;;;;;;4935801;29;20218;-78
2021/12/26 07:27:13;;;;;;;19.33;12.80;;;4.40;99.90;;;;;;4935743;29;20175;-78
2021/12/26 07:29:40;;;;;;;17.77;12.70;;;4.50;99.90;;;;;;4935742;29;20243;-78
2021/12/26 07:32:10;;;;;;;17.42;12.55;;;4.60;99.90;;;;;;4935719;29;20254;-77
2021/12/26 07:34:36;;;;;;;12.77;11.15;;;4.30;99.90;;;;;;4935451;29;20187;-79
2021/12/26 07:37:02;;;;;;;17.75;12.68;;;4.40;99.90;;;;;;4934925;29;20171;-79
2021/12/26 07:39:28;;;;;;;18.42;13.23;;;4.20;99.90;;;;;;4934751;29;20198;-78
2021/12/26 07:41:54;;;;;;;16.95;13.13;;;4.40;99.90;;;;;;4935465;29;20535;-80
2021/12/26 07:44:20;;;;;;;18.02;12.90;;;4.40;99.90;;;;;;4935725;29;20270;-79
2021/12/26 07:46:46;;;;;;;17.13;12.07;;;4.40;99.90;;;;;;4935509;29;20744;-78
2021/12/26 07:49:11;;;;;;;17.10;12.35;;;4.40;99.90;;;;;;4935474;29;20593;-77
2021/12/26 07:51:37;;;;;;;15.60;11.63;;;4.40;99.90;;;;;;4935463;29;20175;-77
2021/12/26 07:54:03;;;;;;;15.55;11.68;;;4.20;99.90;;;;;;4949598;28;20222;-79
2021/12/26 07:56:30;;;;;;;16.00;12.18;;;4.10;99.90;;;;;;4935442;29;20260;-78
2021/12/26 07:58:56;;;;;;;21.73;13.55;;;4.20;99.90;;;;;;4935050;29;20222;-78
2021/12/26 08:01:22;;;;;;;18.42;13.43;;;4.20;99.90;;;;;;4935220;29;20249;-78
2021/12/26 08:03:48;;;;;;;19.27;13.35;;;4.20;99.90;;;;;;4935339;29;20254;-79
2021/12/26 08:06:18;;;;;;;17.48;12.80;;;4.10;99.90;;;;;;4935125;29;20167;-77
2021/12/26 08:08:45;;;;;;;19.48;12.80;;;3.90;99.90;;;;;;4935125;29;20195;-79
2021/12/26 08:11:11;;;;;;;20.70;12.43;;;3.80;99.90;;;;;;4935658;29;20621;-79
2021/12/26 08:13:37;;;;;;;22.48;13.18;;;3.90;99.90;;;;;;4935470;29;20209;-79
2021/12/26 08:16:03;;;;;;;21.30;15.23;;;4.10;99.90;;;;;;4935291;29;20175;-79
2021/12/26 08:18:28;;;;;;;18.05;13.60;;;4.10;99.90;;;;;;4935145;29;20191;-79
2021/12/26 08:20:54;;;;;;;18.60;14.05;;;4.20;99.90;;;;;;4935403;29;20182;-78
2021/12/26 08:23:19;;;;;;;22.17;14.85;;;4.20;99.90;;;;;;4949424;28;20171;-78
2021/12/26 08:25:45;;;;;;;22.65;14.30;;;4.20;99.90;;;;;;4934918;29;20210;-79
2021/12/26 08:28:14;;;;;;;20.42;14.65;;;4.10;99.90;;;;;;4935197;29;20191;-80
2021/12/26 08:30:40;;;;;;;25.52;16.13;;;4.20;99.90;;;;;;4949475;28;20172;-84
2021/12/26 08:33:07;;;;;;;21.60;15.75;;;4.20;99.90;;;;;;4949477;28;20215;-82
2021/12/26 08:35:34;;;;;;;25.88;16.77;;;4.10;99.90;;;;;;4934697;29;20223;-79
2021/12/26 08:38:00;;;;;;;23.90;16.25;;;4.10;99.90;;;;;;4933622;29;20187;-79
2021/12/26 08:40:26;;;;;;;22.75;16.27;;;4.40;99.90;;;;;;4933177;29;20527;-79
2021/12/26 08:42:52;;;;;;;28.77;18.65;;;4.40;99.90;;;;;;4934865;29;20176;-82
2021/12/26 08:45:18;;;;;;;27.83;17.50;;;4.40;99.90;;;;;;4935054;29;20687;-79
2021/12/26 08:47:43;;;;;;;28.02;18.30;;;4.40;99.90;;;;;;4934742;29;20167;-78
2021/12/26 08:50:11;;;;;;;23.70;17.05;;;4.50;99.90;;;;;;4938062;29;20238;-79
2021/12/26 08:52:38;;;;;;;22.08;15.88;;;4.50;99.90;;;;;;4938249;29;20203;-77
2021/12/26 08:55:04;;;;;;;21.90;14.63;;;4.50;99.90;;;;;;4937490;29;20168;-78
2021/12/26 08:57:32;;;;;;;23.35;15.05;;;4.50;99.90;;;;;;4937876;29;20179;-78
2021/12/26 08:59:58;;;;;;;25.30;14.70;;;4.50;99.90;;;;;;4952896;28;20195;-77
2021/12/26 09:02:24;;;;;;;18.30;13.90;;;4.40;99.90;;;;;;4938136;29;20174;-77
2021/12/26 09:04:50;;;;;;;18.38;13.15;;;4.50;99.90;;;;;;4938084;29;20171;-78
2021/12/26 09:07:16;;;;;;;19.77;12.93;;;4.60;99.90;;;;;;4937864;29;20214;-77
2021/12/26 09:09:42;;;;;;;20.50;14.95;;;4.50;99.90;;;;;;4937824;29;20187;-78
2021/12/26 09:12:08;;;;;;;25.50;14.75;;;4.40;99.90;;;;;;4938066;29;20186;-77
2021/12/26 09:14:34;;;;;;;22.13;14.27;;;4.30;99.90;;;;;;4938039;29;20203;-81
2021/12/26 09:17:00;;;;;;;29.17;16.85;;;4.30;99.90;;;;;;4937815;29;20624;-80
2021/12/26 09:19:28;;;;;;;25.75;16.42;;;4.20;99.90;;;;;;4937976;29;20191;-78
2021/12/26 09:22:03;;;;;;;29.70;16.90;;;4.30;99.90;;;;;;4938042;28;20182;-78
2021/12/26 09:24:29;;;;;;;25.00;17.13;;;4.50;99.90;;;;;;4938085;29;20202;-78
2021/12/26 09:26:55;;;;;;;28.63;17.52;;;4.40;99.90;;;;;;4937757;29;20569;-78
2021/12/26 09:29:21;;;;;;;26.00;15.48;;;4.50;99.90;;;;;;4937228;29;20210;-78
2021/12/26 09:31:47;;;;;;;20.85;14.80;;;4.40;99.90;;;;;;4937603;28;20573;-77
2021/12/26 09:34:14;;;;;;;19.92;14.18;;;4.40;99.90;;;;;;4937868;29;20211;-78
2021/12/26 09:36:40;;;;;;;22.25;13.30;;;4.30;99.90;;;;;;4937858;29;20170;-76
2021/12/26 09:39:06;;;;;;;17.35;12.50;;;4.30;99.90;;;;;;4937450;29;20201;-80
2021/12/26 09:41:32;;;;;;;20.95;13.18;;;4.20;99.90;;;;;;4952012;28;20262;-77
2021/12/26 09:43:59;;;;;;;16.95;12.95;;;4.30;99.90;;;;;;4937493;29;20183;-78
2021/12/26 09:46:28;;;;;;;20.02;12.93;;;4.30;99.90;;;;;;4933674;29;20231;-78
2021/12/26 09:48:54;;;;;;;16.27;12.80;;;4.30;99.90;;;;;;4936542;29;20187;-77
2021/12/26 09:51:20;;;;;;;16.67;12.35;;;4.40;99.90;;;;;;4936971;28;20651;-77
2021/12/26 09:53:45;;;;;;;19.95;13.27;;;4.50;99.90;;;;;;4936389;29;20294;-77
2021/12/26 09:56:11;;;;;;;21.85;13.65;;;4.50;99.90;;;;;;4946062;28;20646;-78
2021/12/26 09:58:52;;;;;;;17.70;12.05;;;4.50;99.90;;;;;;4955640;28;20198;-79
2021/12/26 10:01:31;;;;;;;17.67;12.02;;;4.60;99.90;;;;;;4954021;28;20257;-76
2021/12/26 10:03:59;;;;;;;20.15;14.00;;;4.70;99.90;;;;;;4954725;28;20163;-78
2021/12/26 10:06:25;;;;;;;19.65;13.40;;;4.80;99.90;;;;;;4956157;28;20190;-78
2021/12/26 10:08:54;;;;;;;18.63;13.70;;;4.90;99.90;;;;;;4956295;28;20190;-78
2021/12/26 10:11:21;;;;;;;17.27;12.43;;;4.80;99.90;;;;;;4956064;28;20577;-77
2021/12/26 10:13:51;;;;;;;20.67;13.43;;;4.70;99.90;;;;;;4958260;28;20543;-79
2021/12/26 10:16:23;;;;;;;28.83;14.50;;;4.80;99.90;;;;;;4958835;28;20631;-78
2021/12/26 10:18:49;;;;;;;17.00;13.30;;;4.90;99.90;;;;;;4955120;28;20663;-78
2021/12/26 10:21:43;;;;;;;18.92;13.93;;;4.80;99.90;;;;;;4954790;28;20181;-79
2021/12/26 10:24:19;;;;;;;17.60;14.00;;;4.90;99.90;;;;;;4955320;28;20178;-78
2021/12/26 10:26:47;;;;;;;32.55;13.95;;;4.80;99.90;;;;;;4954195;28;20182;-79
2021/12/26 10:29:16;;;;;;;15.40;12.90;;;4.80;99.90;;;;;;4953098;28;20199;-79
2021/12/26 10:32:07;;;;;;;20.75;14.30;;;4.90;99.90;;;;;;4955319;28;20167;-79
2021/12/26 10:34:32;;;;;;;18.27;13.57;;;4.90;99.90;;;;;;4952105;28;20234;-80
2021/12/26 10:37:00;;;;;;;22.00;14.43;;;5.20;99.90;;;;;;4954581;28;20282;-78
2021/12/26 10:39:32;;;;;;;25.80;15.55;;;5.10;99.90;;;;;;4969014;28;20230;-80
2021/12/26 10:42:06;;;;;;;22.08;15.82;;;5.30;99.90;;;;;;4954775;28;20226;-78
2021/12/26 10:44:56;;;;;;;24.40;15.10;;;5.40;99.90;;;;;;4954879;28;20179;-78
2021/12/26 10:47:27;;;;;;;24.25;16.45;;;5.50;99.90;;;;;;4951934;28;20194;-78
2021/12/26 10:50:02;;;;;;;21.40;17.00;;;5.80;99.90;;;;;;4954203;28;20273;-79
2021/12/26 10:52:34;;;;;;;30.70;16.30;;;5.80;99.90;;;;;;4953988;28;20166;-82
2021/12/26 10:55:04;;;;;;;17.35;12.75;;;5.70;99.90;;;;;;4955274;28;20280;-79
2021/12/26 10:57:41;;;;;;;24.33;16.63;;;5.80;99.90;;;;;;4955417;28;20209;-79
2021/12/26 11:00:16;;;;;;;27.65;16.20;;;5.90;99.90;;;;;;4955454;28;20221;-79
2021/12/26 11:02:44;;;;;;;27.10;17.83;;;6.10;99.90;;;;;;4954962;28;20170;-80
2021/12/26 11:05:19;;;;;;;28.85;16.75;;;6.10;99.90;;;;;;4969857;28;20179;-79
2021/12/26 11:08:11;;;;;;;26.27;17.52;;;6.20;99.90;;;;;;4955019;28;20170;-79
2021/12/26 11:10:40;;;;;;;27.00;16.70;;;6.40;99.90;;;;;;4969584;28;20742;-80
2021/12/26 11:13:16;;;;;;;20.88;15.57;;;6.60;99.90;;;;;;4970592;28;20221;-79
2021/12/26 11:15:42;;;;;;;30.00;16.58;;;6.60;99.90;;;;;;4958434;28;20239;-79
2021/12/26 11:18:10;;;;;;;27.83;17.40;;;6.90;99.90;;;;;;4938189;28;20211;-78
2021/12/26 11:20:42;;;;;;;21.27;15.27;;;6.80;99.90;;;;;;4917246;29;20168;-78
2021/12/26 11:23:20;;;;;;;30.65;17.35;;;6.70;99.90;;;;;;4937693;29;20206;-78
2021/12/26 11:25:47;;;;;;;24.77;15.23;;;6.90;99.90;;;;;;4920194;29;20589;-78
2021/12/26 11:28:16;;;;;;;21.27;14.35;;;7.00;99.90;;;;;;4919076;29;20551;-78
2021/12/26 11:30:43;;;;;;;23.63;16.85;;;7.10;99.90;;;;;;4918010;29;20218;-80
2021/12/26 11:33:12;;;;;;;31.90;17.60;;;7.30;99.90;;;;;;4918785;29;20720;-79
2021/12/26 11:35:40;;;;;;;29.23;18.33;;;7.30;99.90;;;;;;4918882;29;20672;-81
2021/12/26 11:38:09;;;;;;;23.55;16.63;;;7.40;99.90;;;;;;4917875;29;20203;-79
2021/12/26 11:40:35;;;;;;;25.10;15.10;;;7.60;99.90;;;;;;4917237;29;20303;-79
2021/12/26 11:43:08;;;;;;;18.40;14.02;;;7.50;99.90;;;;;;4917814;29;20212;-79
2021/12/26 11:45:42;;;;;;;21.80;13.18;;;7.50;99.90;;;;;;4918882;29;20163;-79
2021/12/26 11:48:37;;;;;;;14.88;11.80;;;7.60;99.90;;;;;;4956301;23;20690;-86
2021/12/26 11:51:20;;;;;;;18.00;11.15;;;7.70;99.90;;;;;;4973696;28;20545;-81
2021/12/26 11:54:14;;;;;;;12.85;10.73;;;7.70;99.90;;;;;;4979476;28;20220;-85
2021/12/26 11:57:07;;;;;;;14.70;11.20;;;7.80;99.90;;;;;;4984740;28;20182;-82
2021/12/26 12:00:02;;;;;;;13.50;11.40;;;7.80;99.90;;;;;;4990869;28;20182;-82
2021/12/26 12:02:49;;;;;;;16.42;10.27;;;7.80;99.90;;;;;;4974467;28;20178;-80
2021/12/26 12:05:26;;;;;;;20.45;11.48;;;7.70;99.90;;;;;;4976469;28;20181;-85
2021/12/26 12:07:57;;;;;;;13.30;10.65;;;7.60;99.90;;;;;;4974497;28;20200;-87
2021/12/26 12:10:34;;;;;;;12.23;10.02;;;7.50;99.90;;;;;;4974226;28;20174;-80
2021/12/26 12:13:00;;;;;;;11.77;10.57;;;7.30;99.90;;;;;;4974860;28;20256;-78
2021/12/26 12:15:52;;;;;;;13.75;11.25;;;7.40;99.90;;;;;;4974386;28;20210;-78
2021/12/26 12:18:19;;;;;;;14.23;10.95;;;7.50;99.90;;;;;;4973545;28;20229;-80
2021/12/26 12:20:45;;;;;;;20.30;11.57;;;7.60;99.90;;;;;;4974913;28;20986;-77
2021/12/26 12:23:15;;;;;;;13.05;10.75;;;7.60;99.90;;;;;;4976156;28;20197;-84
2021/12/26 12:25:52;;;;;;;12.93;9.95;;;7.50;99.90;;;;;;4988988;28;20173;-78
2021/12/26 12:28:28;;;;;;;13.85;10.93;;;7.60;99.90;;;;;;4988891;28;20224;-78
2021/12/26 12:31:15;;;;;;;18.85;10.25;;;7.60;99.90;;;;;;4988994;28;20166;-78
2021/12/26 12:33:42;;;;;;;13.95;11.38;;;7.70;99.90;;;;;;4987084;28;20572;-84
2021/12/26 12:36:26;;;;;;;10.75;9.65;;;7.70;99.90;;;;;;4981193;28;20229;-83
2021/12/26 12:38:52;;;;;;;14.02;10.00;;;7.50;99.90;;;;;;4978436;28;20587;-79
2021/12/26 12:41:30;;;;;;;14.05;10.52;;;7.70;99.90;;;;;;4977785;28;20170;-79
2021/12/26 12:43:58;;;;;;;14.70;10.68;;;7.60;99.90;;;;;;4976943;28;20205;-84
2021/12/26 12:46:24;;;;;;;18.67;11.00;;;7.80;99.90;;;;;;4978390;28;20184;-81
2021/12/26 12:48:59;;;;;;;13.88;10.60;;;8.00;99.90;;;;;;4977568;28;20336;-80